sensor_id;sensor_type;location;lat;lon;timestamp;P1;durP1;ratioP1;P2;durP2;ratioP2
38238;SDS011;24035;48.900;9.188;2023-05-17T00:00:33;5.03;;;0.50;;
38238;SDS011;24035;48.900;9.188;2023-05-17T00:03:02;4.25;;;0.55;;
38238;SDS011;24035;48.900;9.188;2023-05-17T00:05:28;2.03;;;0.32;;
38238;SDS011;24035;48.900;9.188;2023-05-17T00:07:53;2.28;;;0.43;;
38238;SDS011;24035;48.900;9.188;2023-05-17T00:10:19;2.72;;;0.80;;
38238;SDS011;24035;48.900;9.188;2023-05-17T00:12:45;2.50;;;0.40;;
38238;SDS011;24035;48.900;9.188;2023-05-17T00:15:10;1.75;;;0.30;;
38238;SDS011;24035;48.900;9.188;2023-05-17T00:17:36;3.70;;;0.80;;
38238;SDS011;24035;48.900;9.188;2023-05-17T00:20:02;1.30;;;0.47;;
38238;SDS011;24035;48.900;9.188;2023-05-17T00:22:29;3.80;;;0.45;;
38238;SDS011;24035;48.900;9.188;2023-05-17T00:24:55;2.63;;;0.60;;
38238;SDS011;24035;48.900;9.188;2023-05-17T00:27:20;3.78;;;0.50;;
38238;SDS011;24035;48.900;9.188;2023-05-17T00:29:46;5.82;;;1.00;;
38238;SDS011;24035;48.900;9.188;2023-05-17T00:32:12;2.47;;;0.60;;
38238;SDS011;24035;48.900;9.188;2023-05-17T00:34:37;2.42;;;0.40;;
38238;SDS011;24035;48.900;9.188;2023-05-17T00:37:03;2.88;;;0.43;;
38238;SDS011;24035;48.900;9.188;2023-05-17T00:39:28;4.13;;;0.68;;
38238;SDS011;24035;48.900;9.188;2023-05-17T00:41:54;2.83;;;0.55;;
38238;SDS011;24035;48.900;9.188;2023-05-17T00:44:20;3.35;;;0.55;;
38238;SDS011;24035;48.900;9.188;2023-05-17T00:46:45;1.13;;;0.40;;
38238;SDS011;24035;48.900;9.188;2023-05-17T00:49:11;2.17;;;0.57;;
38238;SDS011;24035;48.900;9.188;2023-05-17T00:51:37;2.65;;;0.63;;
38238;SDS011;24035;48.900;9.188;2023-05-17T00:54:04;1.52;;;0.40;;
38238;SDS011;24035;48.900;9.188;2023-05-17T00:56:30;2.25;;;0.55;;
38238;SDS011;24035;48.900;9.188;2023-05-17T00:58:56;5.63;;;0.68;;
38238;SDS011;24035;48.900;9.188;2023-05-17T01:01:23;2.25;;;0.57;;
38238;SDS011;24035;48.900;9.188;2023-05-17T01:03:50;2.90;;;0.40;;
38238;SDS011;24035;48.900;9.188;2023-05-17T01:06:16;1.90;;;0.50;;
38238;SDS011;24035;48.900;9.188;2023-05-17T01:08:42;2.25;;;0.55;;
38238;SDS011;24035;48.900;9.188;2023-05-17T01:11:13;1.67;;;0.70;;
38238;SDS011;24035;48.900;9.188;2023-05-17T01:14:01;1.27;;;0.52;;
38238;SDS011;24035;48.900;9.188;2023-05-17T01:16:54;1.27;;;0.40;;
38238;SDS011;24035;48.900;9.188;2023-05-17T01:27:57;1.73;;;0.50;;
38238;SDS011;24035;48.900;9.188;2023-05-17T01:30:25;4.57;;;1.67;;
38238;SDS011;24035;48.900;9.188;2023-05-17T01:32:54;2.33;;;0.50;;
38238;SDS011;24035;48.900;9.188;2023-05-17T01:35:24;1.52;;;0.55;;
38238;SDS011;24035;48.900;9.188;2023-05-17T01:37:53;1.23;;;0.40;;
38238;SDS011;24035;48.900;9.188;2023-05-17T01:40:19;1.77;;;0.40;;
38238;SDS011;24035;48.900;9.188;2023-05-17T01:42:46;3.40;;;0.65;;
38238;SDS011;24035;48.900;9.188;2023-05-17T01:45:20;2.60;;;0.73;;
38238;SDS011;24035;48.900;9.188;2023-05-17T01:48:22;1.65;;;0.65;;
38238;SDS011;24035;48.900;9.188;2023-05-17T01:50:55;4.28;;;0.70;;
38238;SDS011;24035;48.900;9.188;2023-05-17T01:53:30;2.03;;;0.50;;
38238;SDS011;24035;48.900;9.188;2023-05-17T01:56:21;4.57;;;0.82;;
38238;SDS011;24035;48.900;9.188;2023-05-17T01:58:52;3.50;;;0.70;;
38238;SDS011;24035;48.900;9.188;2023-05-17T02:01:21;1.30;;;0.43;;
38238;SDS011;24035;48.900;9.188;2023-05-17T02:03:48;0.95;;;0.28;;
38238;SDS011;24035;48.900;9.188;2023-05-17T02:06:15;2.17;;;0.80;;
38238;SDS011;24035;48.900;9.188;2023-05-17T02:08:41;1.13;;;0.35;;
38238;SDS011;24035;48.900;9.188;2023-05-17T02:11:06;4.25;;;0.80;;
38238;SDS011;24035;48.900;9.188;2023-05-17T02:13:32;3.38;;;0.60;;
38238;SDS011;24035;48.900;9.188;2023-05-17T02:16:02;3.55;;;0.82;;
38238;SDS011;24035;48.900;9.188;2023-05-17T02:18:28;1.50;;;0.52;;
38238;SDS011;24035;48.900;9.188;2023-05-17T02:20:54;1.70;;;0.60;;
38238;SDS011;24035;48.900;9.188;2023-05-17T02:23:20;2.28;;;0.82;;
38238;SDS011;24035;48.900;9.188;2023-05-17T02:25:46;3.78;;;0.77;;
38238;SDS011;24035;48.900;9.188;2023-05-17T02:28:11;4.82;;;0.77;;
38238;SDS011;24035;48.900;9.188;2023-05-17T02:30:37;0.98;;;0.40;;
38238;SDS011;24035;48.900;9.188;2023-05-17T02:33:06;1.65;;;0.57;;
38238;SDS011;24035;48.900;9.188;2023-05-17T02:35:32;1.65;;;0.52;;
38238;SDS011;24035;48.900;9.188;2023-05-17T02:37:58;2.70;;;0.70;;
38238;SDS011;24035;48.900;9.188;2023-05-17T02:40:24;5.38;;;0.85;;
38238;SDS011;24035;48.900;9.188;2023-05-17T02:42:49;3.22;;;0.80;;
38238;SDS011;24035;48.900;9.188;2023-05-17T02:45:15;2.35;;;0.60;;
38238;SDS011;24035;48.900;9.188;2023-05-17T02:47:41;3.00;;;0.60;;
38238;SDS011;24035;48.900;9.188;2023-05-17T02:50:07;2.13;;;0.73;;
38238;SDS011;24035;48.900;9.188;2023-05-17T02:52:32;4.60;;;0.70;;
38238;SDS011;24035;48.900;9.188;2023-05-17T02:54:58;2.55;;;0.80;;
38238;SDS011;24035;48.900;9.188;2023-05-17T02:57:24;2.63;;;0.70;;
38238;SDS011;24035;48.900;9.188;2023-05-17T02:59:50;3.97;;;0.93;;
38238;SDS011;24035;48.900;9.188;2023-05-17T03:02:15;2.50;;;0.50;;
38238;SDS011;24035;48.900;9.188;2023-05-17T03:04:41;5.03;;;0.90;;
38238;SDS011;24035;48.900;9.188;2023-05-17T03:07:06;3.50;;;0.63;;
38238;SDS011;24035;48.900;9.188;2023-05-17T03:09:33;3.53;;;0.60;;
38238;SDS011;24035;48.900;9.188;2023-05-17T03:11:58;3.30;;;0.70;;
38238;SDS011;24035;48.900;9.188;2023-05-17T03:14:24;3.58;;;0.60;;
38238;SDS011;24035;48.900;9.188;2023-05-17T03:16:49;3.38;;;0.70;;
38238;SDS011;24035;48.900;9.188;2023-05-17T03:19:15;3.10;;;0.75;;
38238;SDS011;24035;48.900;9.188;2023-05-17T03:21:41;3.17;;;0.70;;
38238;SDS011;24035;48.900;9.188;2023-05-17T03:24:06;5.30;;;1.00;;
38238;SDS011;24035;48.900;9.188;2023-05-17T03:26:32;4.82;;;1.70;;
38238;SDS011;24035;48.900;9.188;2023-05-17T03:28:58;4.00;;;0.85;;
38238;SDS011;24035;48.900;9.188;2023-05-17T03:31:23;5.60;;;0.80;;
38238;SDS011;24035;48.900;9.188;2023-05-17T03:33:50;2.35;;;0.85;;
38238;SDS011;24035;48.900;9.188;2023-05-17T03:36:15;2.83;;;0.80;;
38238;SDS011;24035;48.900;9.188;2023-05-17T03:38:41;4.38;;;0.90;;
38238;SDS011;24035;48.900;9.188;2023-05-17T03:41:06;7.57;;;1.70;;
38238;SDS011;24035;48.900;9.188;2023-05-17T03:43:32;6.40;;;1.42;;
38238;SDS011;24035;48.900;9.188;2023-05-17T03:45:58;4.13;;;1.25;;
38238;SDS011;24035;48.900;9.188;2023-05-17T03:48:24;4.40;;;1.67;;
38238;SDS011;24035;48.900;9.188;2023-05-17T03:50:49;5.50;;;2.10;;
38238;SDS011;24035;48.900;9.188;2023-05-17T03:53:15;4.00;;;0.93;;
38238;SDS011;24035;48.900;9.188;2023-05-17T03:55:41;3.83;;;1.00;;
38238;SDS011;24035;48.900;9.188;2023-05-17T03:58:07;5.90;;;2.10;;
38238;SDS011;24035;48.900;9.188;2023-05-17T04:00:32;4.53;;;1.30;;
38238;SDS011;24035;48.900;9.188;2023-05-17T04:02:59;5.80;;;1.27;;
38238;SDS011;24035;48.900;9.188;2023-05-17T04:05:24;4.47;;;1.70;;
38238;SDS011;24035;48.900;9.188;2023-05-17T04:07:50;5.28;;;1.17;;
38238;SDS011;24035;48.900;9.188;2023-05-17T04:10:16;4.90;;;1.38;;
38238;SDS011;24035;48.900;9.188;2023-05-17T04:12:42;3.70;;;1.05;;
38238;SDS011;24035;48.900;9.188;2023-05-17T04:15:08;2.35;;;0.80;;
38238;SDS011;24035;48.900;9.188;2023-05-17T04:17:34;3.50;;;0.80;;
38238;SDS011;24035;48.900;9.188;2023-05-17T04:20:00;2.83;;;0.93;;
38238;SDS011;24035;48.900;9.188;2023-05-17T04:22:26;4.53;;;0.90;;
38238;SDS011;24035;48.900;9.188;2023-05-17T04:24:52;1.73;;;0.50;;
38238;SDS011;24035;48.900;9.188;2023-05-17T04:27:17;2.60;;;0.80;;
38238;SDS011;24035;48.900;9.188;2023-05-17T04:29:43;3.20;;;0.90;;
38238;SDS011;24035;48.900;9.188;2023-05-17T04:32:08;6.53;;;1.15;;
38238;SDS011;24035;48.900;9.188;2023-05-17T04:34:35;6.63;;;1.23;;
38238;SDS011;24035;48.900;9.188;2023-05-17T04:37:00;3.83;;;1.15;;
38238;SDS011;24035;48.900;9.188;2023-05-17T04:39:26;4.85;;;1.00;;
38238;SDS011;24035;48.900;9.188;2023-05-17T04:41:52;2.13;;;0.75;;
38238;SDS011;24035;48.900;9.188;2023-05-17T04:44:17;2.92;;;0.80;;
38238;SDS011;24035;48.900;9.188;2023-05-17T04:46:43;4.07;;;0.90;;
38238;SDS011;24035;48.900;9.188;2023-05-17T04:49:09;2.20;;;0.77;;
38238;SDS011;24035;48.900;9.188;2023-05-17T04:51:35;5.05;;;0.80;;
38238;SDS011;24035;48.900;9.188;2023-05-17T04:54:01;3.85;;;0.70;;
38238;SDS011;24035;48.900;9.188;2023-05-17T04:56:31;2.92;;;0.65;;
38238;SDS011;24035;48.900;9.188;2023-05-17T04:58:58;1.65;;;0.50;;
38238;SDS011;24035;48.900;9.188;2023-05-17T05:01:24;2.63;;;0.80;;
38238;SDS011;24035;48.900;9.188;2023-05-17T05:03:49;5.40;;;0.80;;
38238;SDS011;24035;48.900;9.188;2023-05-17T05:06:15;4.00;;;0.45;;
38238;SDS011;24035;48.900;9.188;2023-05-17T05:08:41;1.75;;;0.50;;
38238;SDS011;24035;48.900;9.188;2023-05-17T05:11:06;5.30;;;0.80;;
38238;SDS011;24035;48.900;9.188;2023-05-17T05:13:32;3.42;;;0.57;;
38238;SDS011;24035;48.900;9.188;2023-05-17T05:15:58;2.55;;;0.90;;
38238;SDS011;24035;48.900;9.188;2023-05-17T05:18:23;2.70;;;0.60;;
38238;SDS011;24035;48.900;9.188;2023-05-17T05:20:49;2.08;;;0.60;;
38238;SDS011;24035;48.900;9.188;2023-05-17T05:23:15;1.70;;;0.60;;
38238;SDS011;24035;48.900;9.188;2023-05-17T05:25:42;4.07;;;0.70;;
38238;SDS011;24035;48.900;9.188;2023-05-17T05:28:08;2.78;;;0.77;;
38238;SDS011;24035;48.900;9.188;2023-05-17T05:30:35;2.47;;;0.68;;
38238;SDS011;24035;48.900;9.188;2023-05-17T05:33:00;3.70;;;1.15;;
38238;SDS011;24035;48.900;9.188;2023-05-17T05:35:26;2.20;;;0.73;;
38238;SDS011;24035;48.900;9.188;2023-05-17T05:37:55;4.43;;;0.93;;
38238;SDS011;24035;48.900;9.188;2023-05-17T05:40:22;2.17;;;0.63;;
38238;SDS011;24035;48.900;9.188;2023-05-17T05:42:47;3.55;;;0.77;;
38238;SDS011;24035;48.900;9.188;2023-05-17T05:45:13;5.43;;;1.40;;
38238;SDS011;24035;48.900;9.188;2023-05-17T05:47:39;3.70;;;0.63;;
38238;SDS011;24035;48.900;9.188;2023-05-17T05:50:05;2.90;;;0.85;;
38238;SDS011;24035;48.900;9.188;2023-05-17T05:52:32;2.13;;;0.80;;
38238;SDS011;24035;48.900;9.188;2023-05-17T05:54:58;6.22;;;1.20;;
38238;SDS011;24035;48.900;9.188;2023-05-17T05:57:24;4.53;;;0.90;;
38238;SDS011;24035;48.900;9.188;2023-05-17T05:59:49;4.57;;;1.20;;
38238;SDS011;24035;48.900;9.188;2023-05-17T06:02:15;3.63;;;0.73;;
38238;SDS011;24035;48.900;9.188;2023-05-17T06:04:41;3.85;;;0.73;;
38238;SDS011;24035;48.900;9.188;2023-05-17T06:07:07;3.45;;;1.00;;
38238;SDS011;24035;48.900;9.188;2023-05-17T06:09:33;1.90;;;0.65;;
38238;SDS011;24035;48.900;9.188;2023-05-17T06:11:59;2.95;;;1.10;;
38238;SDS011;24035;48.900;9.188;2023-05-17T06:14:25;3.63;;;0.70;;
38238;SDS011;24035;48.900;9.188;2023-05-17T06:16:51;5.05;;;1.00;;
38238;SDS011;24035;48.900;9.188;2023-05-17T06:19:17;6.13;;;1.33;;
38238;SDS011;24035;48.900;9.188;2023-05-17T06:21:44;2.75;;;0.73;;
38238;SDS011;24035;48.900;9.188;2023-05-17T06:24:09;4.35;;;1.10;;
38238;SDS011;24035;48.900;9.188;2023-05-17T06:26:35;3.30;;;0.77;;
38238;SDS011;24035;48.900;9.188;2023-05-17T06:29:01;3.60;;;1.00;;
38238;SDS011;24035;48.900;9.188;2023-05-17T06:31:27;2.47;;;0.80;;
38238;SDS011;24035;48.900;9.188;2023-05-17T06:33:53;3.65;;;0.90;;
38238;SDS011;24035;48.900;9.188;2023-05-17T06:36:19;5.68;;;0.98;;
38238;SDS011;24035;48.900;9.188;2023-05-17T06:38:44;2.35;;;0.80;;
38238;SDS011;24035;48.900;9.188;2023-05-17T06:41:10;3.70;;;0.93;;
38238;SDS011;24035;48.900;9.188;2023-05-17T06:43:36;5.35;;;1.08;;
38238;SDS011;24035;48.900;9.188;2023-05-17T06:46:02;4.53;;;1.00;;
38238;SDS011;24035;48.900;9.188;2023-05-17T06:48:27;4.50;;;1.15;;
38238;SDS011;24035;48.900;9.188;2023-05-17T06:50:53;3.45;;;0.73;;
38238;SDS011;24035;48.900;9.188;2023-05-17T06:53:19;4.22;;;1.00;;
38238;SDS011;24035;48.900;9.188;2023-05-17T06:55:45;3.95;;;1.02;;
38238;SDS011;24035;48.900;9.188;2023-05-17T06:58:12;4.03;;;1.20;;
38238;SDS011;24035;48.900;9.188;2023-05-17T07:00:37;4.50;;;1.20;;
38238;SDS011;24035;48.900;9.188;2023-05-17T07:03:03;7.25;;;1.35;;
38238;SDS011;24035;48.900;9.188;2023-05-17T07:05:32;4.30;;;1.40;;
38238;SDS011;24035;48.900;9.188;2023-05-17T07:07:58;4.50;;;1.13;;
38238;SDS011;24035;48.900;9.188;2023-05-17T07:10:23;4.65;;;1.08;;
38238;SDS011;24035;48.900;9.188;2023-05-17T07:12:49;3.28;;;1.25;;
38238;SDS011;24035;48.900;9.188;2023-05-17T07:15:15;2.83;;;1.10;;
38238;SDS011;24035;48.900;9.188;2023-05-17T07:17:40;6.68;;;1.58;;
38238;SDS011;24035;48.900;9.188;2023-05-17T07:20:06;5.95;;;1.38;;
38238;SDS011;24035;48.900;9.188;2023-05-17T07:22:32;5.80;;;1.40;;
38238;SDS011;24035;48.900;9.188;2023-05-17T07:24:58;5.03;;;1.27;;
38238;SDS011;24035;48.900;9.188;2023-05-17T07:27:24;9.23;;;1.60;;
38238;SDS011;24035;48.900;9.188;2023-05-17T07:29:50;4.43;;;1.42;;
38238;SDS011;24035;48.900;9.188;2023-05-17T07:32:16;3.22;;;1.17;;
38238;SDS011;24035;48.900;9.188;2023-05-17T07:34:42;7.43;;;1.40;;
38238;SDS011;24035;48.900;9.188;2023-05-17T07:37:07;3.40;;;0.90;;
38238;SDS011;24035;48.900;9.188;2023-05-17T07:39:33;4.75;;;1.58;;
38238;SDS011;24035;48.900;9.188;2023-05-17T07:41:59;4.53;;;1.10;;
38238;SDS011;24035;48.900;9.188;2023-05-17T07:44:24;4.47;;;1.20;;
38238;SDS011;24035;48.900;9.188;2023-05-17T07:46:50;4.95;;;1.33;;
38238;SDS011;24035;48.900;9.188;2023-05-17T07:49:16;3.42;;;1.10;;
38238;SDS011;24035;48.900;9.188;2023-05-17T07:51:42;4.65;;;1.20;;
38238;SDS011;24035;48.900;9.188;2023-05-17T07:54:07;4.57;;;1.20;;
38238;SDS011;24035;48.900;9.188;2023-05-17T07:56:33;4.32;;;1.25;;
38238;SDS011;24035;48.900;9.188;2023-05-17T07:58:59;3.15;;;1.02;;
38238;SDS011;24035;48.900;9.188;2023-05-17T08:01:24;5.65;;;1.20;;
38238;SDS011;24035;48.900;9.188;2023-05-17T08:03:50;4.82;;;1.17;;
38238;SDS011;24035;48.900;9.188;2023-05-17T08:06:16;4.18;;;1.40;;
38238;SDS011;24035;48.900;9.188;2023-05-17T08:08:42;5.30;;;1.17;;
38238;SDS011;24035;48.900;9.188;2023-05-17T08:11:09;3.30;;;1.20;;
38238;SDS011;24035;48.900;9.188;2023-05-17T08:13:36;4.60;;;1.42;;
38238;SDS011;24035;48.900;9.188;2023-05-17T08:16:02;4.00;;;1.63;;
38238;SDS011;24035;48.900;9.188;2023-05-17T08:18:31;6.53;;;1.30;;
38238;SDS011;24035;48.900;9.188;2023-05-17T08:20:57;4.97;;;1.30;;
38238;SDS011;24035;48.900;9.188;2023-05-17T08:23:23;3.65;;;1.23;;
38238;SDS011;24035;48.900;9.188;2023-05-17T08:25:49;5.22;;;1.60;;
38238;SDS011;24035;48.900;9.188;2023-05-17T08:28:14;6.13;;;1.20;;
38238;SDS011;24035;48.900;9.188;2023-05-17T08:30:40;3.42;;;1.17;;
38238;SDS011;24035;48.900;9.188;2023-05-17T08:33:08;4.35;;;1.08;;
38238;SDS011;24035;48.900;9.188;2023-05-17T08:35:34;7.38;;;1.48;;
38238;SDS011;24035;48.900;9.188;2023-05-17T08:38:00;4.72;;;1.45;;
38238;SDS011;24035;48.900;9.188;2023-05-17T08:40:26;4.75;;;1.50;;
38238;SDS011;24035;48.900;9.188;2023-05-17T08:42:52;3.30;;;0.90;;
38238;SDS011;24035;48.900;9.188;2023-05-17T08:45:18;4.43;;;1.67;;
38238;SDS011;24035;48.900;9.188;2023-05-17T08:47:44;4.63;;;1.50;;
38238;SDS011;24035;48.900;9.188;2023-05-17T08:50:11;3.92;;;1.20;;
38238;SDS011;24035;48.900;9.188;2023-05-17T08:52:37;6.88;;;1.38;;
38238;SDS011;24035;48.900;9.188;2023-05-17T08:55:04;6.88;;;1.30;;
38238;SDS011;24035;48.900;9.188;2023-05-17T08:57:32;5.72;;;1.52;;
38238;SDS011;24035;48.900;9.188;2023-05-17T09:00:00;3.67;;;1.42;;
38238;SDS011;24035;48.900;9.188;2023-05-17T09:02:28;6.10;;;1.30;;
38238;SDS011;24035;48.900;9.188;2023-05-17T09:04:55;3.42;;;1.20;;
38238;SDS011;24035;48.900;9.188;2023-05-17T09:07:21;6.00;;;1.52;;
38238;SDS011;24035;48.900;9.188;2023-05-17T09:09:49;6.07;;;1.30;;
38238;SDS011;24035;48.900;9.188;2023-05-17T09:12:17;5.57;;;1.33;;
38238;SDS011;24035;48.900;9.188;2023-05-17T09:14:43;4.15;;;1.40;;
38238;SDS011;24035;48.900;9.188;2023-05-17T09:17:12;8.70;;;1.63;;
38238;SDS011;24035;48.900;9.188;2023-05-17T09:19:43;5.03;;;1.75;;
38238;SDS011;24035;48.900;9.188;2023-05-17T09:22:14;4.80;;;1.48;;
38238;SDS011;24035;48.900;9.188;2023-05-17T09:24:43;3.77;;;1.40;;
38238;SDS011;24035;48.900;9.188;2023-05-17T09:27:13;4.93;;;1.50;;
38238;SDS011;24035;48.900;9.188;2023-05-17T09:29:43;5.10;;;1.30;;
38238;SDS011;24035;48.900;9.188;2023-05-17T09:32:13;3.70;;;1.20;;
38238;SDS011;24035;48.900;9.188;2023-05-17T09:34:40;4.10;;;1.52;;
38238;SDS011;24035;48.900;9.188;2023-05-17T09:37:14;9.10;;;2.03;;
38238;SDS011;24035;48.900;9.188;2023-05-17T09:39:41;5.38;;;1.70;;
38238;SDS011;24035;48.900;9.188;2023-05-17T09:42:09;6.20;;;2.03;;
38238;SDS011;24035;48.900;9.188;2023-05-17T09:44:51;4.95;;;1.50;;
38238;SDS011;24035;48.900;9.188;2023-05-17T09:47:27;3.85;;;1.50;;
38238;SDS011;24035;48.900;9.188;2023-05-17T09:49:54;3.72;;;1.10;;
38238;SDS011;24035;48.900;9.188;2023-05-17T09:52:22;3.22;;;1.10;;
38238;SDS011;24035;48.900;9.188;2023-05-17T09:54:52;4.38;;;1.70;;
38238;SDS011;24035;48.900;9.188;2023-05-17T09:57:19;5.80;;;1.27;;
38238;SDS011;24035;48.900;9.188;2023-05-17T09:59:45;5.28;;;1.35;;
38238;SDS011;24035;48.900;9.188;2023-05-17T10:02:14;3.83;;;1.50;;
38238;SDS011;24035;48.900;9.188;2023-05-17T10:04:50;8.23;;;1.42;;
38238;SDS011;24035;48.900;9.188;2023-05-17T10:07:18;5.20;;;1.27;;
38238;SDS011;24035;48.900;9.188;2023-05-17T10:09:48;6.53;;;1.30;;
38238;SDS011;24035;48.900;9.188;2023-05-17T10:12:15;3.67;;;1.30;;
38238;SDS011;24035;48.900;9.188;2023-05-17T10:14:42;5.20;;;1.40;;
38238;SDS011;24035;48.900;9.188;2023-05-17T10:17:09;4.13;;;1.08;;
38238;SDS011;24035;48.900;9.188;2023-05-17T10:19:35;3.83;;;1.15;;
38238;SDS011;24035;48.900;9.188;2023-05-17T10:22:01;4.82;;;1.38;;
38238;SDS011;24035;48.900;9.188;2023-05-17T10:24:28;3.47;;;1.08;;
38238;SDS011;24035;48.900;9.188;2023-05-17T10:26:56;5.63;;;1.85;;
38238;SDS011;24035;48.900;9.188;2023-05-17T10:29:22;5.85;;;1.38;;
38238;SDS011;24035;48.900;9.188;2023-05-17T10:31:48;3.13;;;1.20;;
38238;SDS011;24035;48.900;9.188;2023-05-17T10:34:18;4.57;;;1.33;;
38238;SDS011;24035;48.900;9.188;2023-05-17T10:36:45;3.50;;;1.27;;
38238;SDS011;24035;48.900;9.188;2023-05-17T10:39:12;3.38;;;1.52;;
38238;SDS011;24035;48.900;9.188;2023-05-17T10:41:39;5.00;;;1.30;;
38238;SDS011;24035;48.900;9.188;2023-05-17T10:44:07;4.35;;;1.52;;
38238;SDS011;24035;48.900;9.188;2023-05-17T10:46:37;5.50;;;1.70;;
38238;SDS011;24035;48.900;9.188;2023-05-17T10:49:03;5.60;;;1.60;;
38238;SDS011;24035;48.900;9.188;2023-05-17T10:51:35;4.13;;;1.33;;
38238;SDS011;24035;48.900;9.188;2023-05-17T10:54:11;4.07;;;1.42;;
38238;SDS011;24035;48.900;9.188;2023-05-17T10:56:49;3.67;;;1.05;;
38238;SDS011;24035;48.900;9.188;2023-05-17T10:59:20;3.97;;;1.38;;
38238;SDS011;24035;48.900;9.188;2023-05-17T11:02:07;6.43;;;1.50;;
38238;SDS011;24035;48.900;9.188;2023-05-17T11:04:37;4.75;;;1.63;;
38238;SDS011;24035;48.900;9.188;2023-05-17T11:10:01;8.57;;;1.75;;
38238;SDS011;24035;48.900;9.188;2023-05-17T11:15:00;4.40;;;1.38;;
38238;SDS011;24035;48.900;9.188;2023-05-17T11:17:33;4.55;;;1.10;;
38238;SDS011;24035;48.900;9.188;2023-05-17T11:22:58;4.35;;;1.33;;
38238;SDS011;24035;48.900;9.188;2023-05-17T11:25:28;4.32;;;1.25;;
38238;SDS011;24035;48.900;9.188;2023-05-17T11:27:56;3.00;;;1.10;;
38238;SDS011;24035;48.900;9.188;2023-05-17T11:32:56;2.92;;;1.20;;
38238;SDS011;24035;48.900;9.188;2023-05-17T11:35:27;3.95;;;1.05;;
38238;SDS011;24035;48.900;9.188;2023-05-17T11:40:54;3.00;;;1.02;;
38238;SDS011;24035;48.900;9.188;2023-05-17T11:43:25;4.03;;;1.35;;
38238;SDS011;24035;48.900;9.188;2023-05-17T11:45:56;3.63;;;0.98;;
38238;SDS011;24035;48.900;9.188;2023-05-17T11:48:28;5.03;;;1.40;;
38238;SDS011;24035;48.900;9.188;2023-05-17T11:50:54;3.90;;;1.33;;
38238;SDS011;24035;48.900;9.188;2023-05-17T11:53:21;4.25;;;1.58;;
38238;SDS011;24035;48.900;9.188;2023-05-17T11:55:48;4.53;;;1.30;;
38238;SDS011;24035;48.900;9.188;2023-05-17T11:58:19;4.95;;;1.70;;
38238;SDS011;24035;48.900;9.188;2023-05-17T12:00:52;3.72;;;1.08;;
38238;SDS011;24035;48.900;9.188;2023-05-17T12:05:50;4.82;;;1.42;;
38238;SDS011;24035;48.900;9.188;2023-05-17T12:08:26;5.25;;;1.27;;
38238;SDS011;24035;48.900;9.188;2023-05-17T12:10:52;5.43;;;1.35;;
38238;SDS011;24035;48.900;9.188;2023-05-17T12:13:21;7.55;;;1.60;;
38238;SDS011;24035;48.900;9.188;2023-05-17T12:15:56;2.78;;;1.00;;
38238;SDS011;24035;48.900;9.188;2023-05-17T12:18:40;4.55;;;1.20;;
38238;SDS011;24035;48.900;9.188;2023-05-17T12:21:12;4.20;;;1.10;;
38238;SDS011;24035;48.900;9.188;2023-05-17T12:23:39;3.38;;;1.17;;
38238;SDS011;24035;48.900;9.188;2023-05-17T12:26:10;2.92;;;1.17;;
38238;SDS011;24035;48.900;9.188;2023-05-17T12:28:52;6.05;;;1.15;;
38238;SDS011;24035;48.900;9.188;2023-05-17T12:31:41;4.00;;;1.05;;
38238;SDS011;24035;48.900;9.188;2023-05-17T12:34:07;4.15;;;1.33;;
38238;SDS011;24035;48.900;9.188;2023-05-17T12:36:36;3.47;;;1.30;;
38238;SDS011;24035;48.900;9.188;2023-05-17T12:39:02;5.68;;;1.48;;
38238;SDS011;24035;48.900;9.188;2023-05-17T12:41:30;5.00;;;1.30;;
38238;SDS011;24035;48.900;9.188;2023-05-17T12:43:56;4.43;;;1.13;;
38238;SDS011;24035;48.900;9.188;2023-05-17T12:46:22;5.28;;;1.50;;
38238;SDS011;24035;48.900;9.188;2023-05-17T12:48:49;6.30;;;1.33;;
38238;SDS011;24035;48.900;9.188;2023-05-17T12:51:16;4.75;;;1.30;;
38238;SDS011;24035;48.900;9.188;2023-05-17T12:53:53;3.83;;;1.17;;
38238;SDS011;24035;48.900;9.188;2023-05-17T12:56:23;6.20;;;1.67;;
38238;SDS011;24035;48.900;9.188;2023-05-17T12:59:11;6.45;;;1.63;;
38238;SDS011;24035;48.900;9.188;2023-05-17T13:01:42;5.32;;;1.70;;
38238;SDS011;24035;48.900;9.188;2023-05-17T13:04:14;3.92;;;1.08;;
38238;SDS011;24035;48.900;9.188;2023-05-17T13:09:18;4.43;;;1.52;;
38238;SDS011;24035;48.900;9.188;2023-05-17T13:11:55;4.53;;;1.27;;
38238;SDS011;24035;48.900;9.188;2023-05-17T13:14:32;7.32;;;1.55;;
38238;SDS011;24035;48.900;9.188;2023-05-17T13:19:40;5.30;;;1.42;;
38238;SDS011;24035;48.900;9.188;2023-05-17T13:22:06;3.95;;;1.30;;
38238;SDS011;24035;48.900;9.188;2023-05-17T13:24:33;5.32;;;1.45;;
38238;SDS011;24035;48.900;9.188;2023-05-17T13:27:00;5.65;;;1.63;;
38238;SDS011;24035;48.900;9.188;2023-05-17T13:29:27;4.32;;;1.80;;
38238;SDS011;24035;48.900;9.188;2023-05-17T13:31:53;7.50;;;1.88;;
38238;SDS011;24035;48.900;9.188;2023-05-17T13:34:19;6.13;;;1.30;;
38238;SDS011;24035;48.900;9.188;2023-05-17T13:36:45;4.32;;;1.50;;
38238;SDS011;24035;48.900;9.188;2023-05-17T13:39:11;3.78;;;1.45;;
38238;SDS011;24035;48.900;9.188;2023-05-17T13:41:37;3.78;;;1.27;;
38238;SDS011;24035;48.900;9.188;2023-05-17T13:44:04;6.03;;;1.50;;
38238;SDS011;24035;48.900;9.188;2023-05-17T13:46:30;4.57;;;1.52;;
38238;SDS011;24035;48.900;9.188;2023-05-17T13:48:56;4.70;;;1.42;;
38238;SDS011;24035;48.900;9.188;2023-05-17T13:51:22;5.93;;;1.50;;
38238;SDS011;24035;48.900;9.188;2023-05-17T13:53:49;3.78;;;1.05;;
38238;SDS011;24035;48.900;9.188;2023-05-17T13:56:16;4.90;;;1.20;;
38238;SDS011;24035;48.900;9.188;2023-05-17T13:58:42;6.88;;;1.40;;
38238;SDS011;24035;48.900;9.188;2023-05-17T14:01:07;4.43;;;1.40;;
38238;SDS011;24035;48.900;9.188;2023-05-17T14:03:33;4.15;;;1.52;;
38238;SDS011;24035;48.900;9.188;2023-05-17T14:06:01;5.05;;;1.20;;
38238;SDS011;24035;48.900;9.188;2023-05-17T14:08:28;4.25;;;1.60;;
38238;SDS011;24035;48.900;9.188;2023-05-17T14:10:54;3.78;;;1.23;;
38238;SDS011;24035;48.900;9.188;2023-05-17T14:13:20;7.85;;;1.33;;
38238;SDS011;24035;48.900;9.188;2023-05-17T14:15:47;5.00;;;1.25;;
38238;SDS011;24035;48.900;9.188;2023-05-17T14:18:13;5.68;;;1.73;;
38238;SDS011;24035;48.900;9.188;2023-05-17T14:20:39;7.22;;;1.60;;
38238;SDS011;24035;48.900;9.188;2023-05-17T14:23:04;3.42;;;1.25;;
38238;SDS011;24035;48.900;9.188;2023-05-17T14:25:30;4.28;;;1.23;;
38238;SDS011;24035;48.900;9.188;2023-05-17T14:27:56;5.45;;;1.45;;
38238;SDS011;24035;48.900;9.188;2023-05-17T14:30:22;4.47;;;1.30;;
38238;SDS011;24035;48.900;9.188;2023-05-17T14:32:48;7.20;;;1.70;;
38238;SDS011;24035;48.900;9.188;2023-05-17T14:35:14;4.15;;;1.20;;
38238;SDS011;24035;48.900;9.188;2023-05-17T14:37:41;3.97;;;1.42;;
38238;SDS011;24035;48.900;9.188;2023-05-17T14:40:07;8.45;;;1.75;;
38238;SDS011;24035;48.900;9.188;2023-05-17T14:42:33;5.97;;;1.20;;
38238;SDS011;24035;48.900;9.188;2023-05-17T14:44:59;5.05;;;1.35;;
38238;SDS011;24035;48.900;9.188;2023-05-17T14:47:25;8.20;;;2.33;;
38238;SDS011;24035;48.900;9.188;2023-05-17T14:49:50;5.05;;;1.35;;
38238;SDS011;24035;48.900;9.188;2023-05-17T14:52:16;6.18;;;1.50;;
38238;SDS011;24035;48.900;9.188;2023-05-17T14:54:42;5.13;;;1.35;;
38238;SDS011;24035;48.900;9.188;2023-05-17T14:57:08;5.80;;;1.13;;
38238;SDS011;24035;48.900;9.188;2023-05-17T14:59:34;6.03;;;1.48;;
38238;SDS011;24035;48.900;9.188;2023-05-17T15:02:00;7.40;;;1.40;;
38238;SDS011;24035;48.900;9.188;2023-05-17T15:04:26;6.15;;;1.30;;
38238;SDS011;24035;48.900;9.188;2023-05-17T15:06:52;6.53;;;1.55;;
38238;SDS011;24035;48.900;9.188;2023-05-17T15:09:17;2.97;;;1.17;;
38238;SDS011;24035;48.900;9.188;2023-05-17T15:11:45;4.07;;;1.30;;
38238;SDS011;24035;48.900;9.188;2023-05-17T15:14:11;4.97;;;1.30;;
38238;SDS011;24035;48.900;9.188;2023-05-17T15:16:36;4.22;;;1.27;;
38238;SDS011;24035;48.900;9.188;2023-05-17T15:19:02;4.93;;;1.67;;